Time;durP1;ratioP1;P1;durP2;ratioP2;P2;SDS_P1;SDS_P2;PMS_P1;PMS_P2;Temp;Humidity;BMP_temperature;BMP_pressure;BME280_temperature;BME280_humidity;BME280_pressure;Samples;Min_cycle;Max_cycle;Signal;HPM_P1;HPM_P2
2022/08/01 00:00:34;;;;;;;6.62;3.20;;;;;;;;;;1694272;82;21060;-67
2022/08/01 00:02:59;;;;;;;3.70;3.10;;;;;;;;;;1710486;84;21048;-69
2022/08/01 00:05:25;;;;;;;4.97;3.00;;;;;;;;;;1711512;84;21096;-67
2022/08/01 00:07:51;;;;;;;3.80;2.62;;;;;;;;;;1705801;84;21152;-67
2022/08/01 00:10:18;;;;;;;4.50;2.87;;;;;;;;;;1694122;83;21112;-69
2022/08/01 00:12:45;;;;;;;4.10;2.83;;;;;;;;;;1686366;83;21149;-69
2022/08/01 00:15:13;;;;;;;3.58;2.80;;;;;;;;;;1692505;83;21041;-69
2022/08/01 00:17:39;;;;;;;4.47;2.90;;;;;;;;;;1724291;82;21028;-69
2022/08/01 00:20:06;;;;;;;6.78;2.90;;;;;;;;;;1719765;82;21071;-69
2022/08/01 00:22:32;;;;;;;5.97;3.05;;;;;;;;;;1695495;82;21040;-69
2022/08/01 00:24:58;;;;;;;5.47;3.20;;;;;;;;;;1688453;84;22280;-69
2022/08/01 00:27:24;;;;;;;4.67;3.25;;;;;;;;;;1689001;84;21619;-69
2022/08/01 00:29:50;;;;;;;5.10;3.08;;;;;;;;;;1737108;81;21073;-68
2022/08/01 00:32:16;;;;;;;5.10;3.15;;;;;;;;;;1733699;82;21022;-68
2022/08/01 00:34:42;;;;;;;5.90;2.95;;;;;;;;;;1739028;81;20996;-68
2022/08/01 00:37:08;;;;;;;4.80;3.12;;;;;;;;;;1737686;82;21053;-67
2022/08/01 00:39:34;;;;;;;4.60;2.77;;;;;;;;;;1746230;80;21016;-67
2022/08/01 00:42:02;;;;;;;5.33;2.90;;;;;;;;;;1762784;80;21044;-67
2022/08/01 00:44:29;;;;;;;6.83;3.17;;;;;;;;;;1742450;82;21076;-67
2022/08/01 00:46:55;;;;;;;4.12;2.75;;;;;;;;;;1716498;83;22100;-67
2022/08/01 00:49:21;;;;;;;4.72;2.90;;;;;;;;;;1718833;82;21116;-68
2022/08/01 00:51:48;;;;;;;3.70;2.80;;;;;;;;;;1731780;81;21077;-67
2022/08/01 00:54:14;;;;;;;5.03;2.98;;;;;;;;;;1722858;81;21045;-68
2022/08/01 00:56:40;;;;;;;5.08;3.30;;;;;;;;;;1711971;84;21423;-68
2022/08/01 00:59:06;;;;;;;4.62;3.40;;;;;;;;;;1747674;81;21061;-68
2022/08/01 01:04:22;;;;;;;4.95;3.30;;;;;;;;;;1749490;79;74760;-69
2022/08/01 01:06:53;;;;;;;3.80;3.05;;;;;;;;;;1756300;81;21021;-70
2022/08/01 01:09:27;;;;;;;3.80;2.98;;;;;;;;;;1738361;82;21559;-68
2022/08/01 01:12:04;;;;;;;4.70;3.20;;;;;;;;;;1747477;81;21049;-68
2022/08/01 01:14:33;;;;;;;6.25;3.33;;;;;;;;;;1762287;80;21080;-69
2022/08/01 01:16:58;;;;;;;4.25;3.08;;;;;;;;;;1792492;79;22293;-69
2022/08/01 01:19:26;;;;;;;3.42;2.98;;;;;;;;;;1786176;79;21102;-70
2022/08/01 01:21:56;;;;;;;3.55;3.05;;;;;;;;;;1788799;79;21130;-69
2022/08/01 01:24:40;;;;;;;4.65;2.95;;;;;;;;;;1768815;79;21056;-70
2022/08/01 01:27:08;;;;;;;6.58;3.80;;;;;;;;;;1723722;82;21074;-70
2022/08/01 01:29:35;;;;;;;4.55;3.30;;;;;;;;;;1770762;79;21036;-69
2022/08/01 01:32:09;;;;;;;8.75;3.72;;;;;;;;;;1788848;79;21079;-70
2022/08/01 01:34:36;;;;;;;4.17;3.30;;;;;;;;;;1775602;79;21116;-69
2022/08/01 01:37:04;;;;;;;5.22;3.35;;;;;;;;;;1791045;80;21488;-70
2022/08/01 01:39:30;;;;;;;4.12;3.45;;;;;;;;;;1790269;80;21543;-68
2022/08/01 01:41:56;;;;;;;4.45;3.40;;;;;;;;;;1790944;80;20992;-69
2022/08/01 01:44:23;;;;;;;6.12;3.20;;;;;;;;;;1789531;80;21099;-69
2022/08/01 01:46:49;;;;;;;5.17;3.12;;;;;;;;;;1815342;79;21028;-69
2022/08/01 01:49:15;;;;;;;5.22;3.08;;;;;;;;;;1741871;80;22190;-69
2022/08/01 01:51:41;;;;;;;5.50;3.50;;;;;;;;;;1756094;81;22196;-69
2022/08/01 01:54:07;;;;;;;5.05;3.52;;;;;;;;;;1763334;81;21021;-69
2022/08/01 01:56:33;;;;;;;5.47;3.50;;;;;;;;;;1790392;79;21040;-70
2022/08/01 01:58:59;;;;;;;4.35;3.40;;;;;;;;;;1791098;79;21052;-70
2022/08/01 02:01:26;;;;;;;4.22;3.10;;;;;;;;;;1762241;81;21446;-69
2022/08/01 02:03:53;;;;;;;5.50;3.87;;;;;;;;;;1776434;79;21068;-70
2022/08/01 02:06:19;;;;;;;5.10;3.60;;;;;;;;;;1732029;82;21065;-69
2022/08/01 02:08:46;;;;;;;3.95;3.30;;;;;;;;;;1737590;81;21070;-70
2022/08/01 02:11:18;;;;;;;5.10;3.58;;;;;;;;;;1759144;80;21587;-70
2022/08/01 02:13:46;;;;;;;6.08;3.45;;;;;;;;;;1758789;80;21032;-70
2022/08/01 02:16:13;;;;;;;6.67;3.52;;;;;;;;;;1766322;80;21048;-68
2022/08/01 02:18:40;;;;;;;5.83;3.72;;;;;;;;;;1778574;80;21056;-69
2022/08/01 02:21:08;;;;;;;4.90;3.40;;;;;;;;;;1781792;80;21032;-69
2022/08/01 02:23:35;;;;;;;3.70;3.10;;;;;;;;;;1786015;80;21527;-70
2022/08/01 02:26:02;;;;;;;4.80;3.50;;;;;;;;;;1790184;80;21001;-70
2022/08/01 02:28:29;;;;;;;7.20;3.80;;;;;;;;;;1786385;80;21027;-69
2022/08/01 02:30:57;;;;;;;5.08;3.70;;;;;;;;;;1776013;80;21068;-69
2022/08/01 02:33:24;;;;;;;5.37;3.60;;;;;;;;;;1753300;80;21060;-69
2022/08/01 02:35:50;;;;;;;6.00;3.60;;;;;;;;;;1760713;80;21535;-69
2022/08/01 02:38:17;;;;;;;4.22;3.40;;;;;;;;;;1762213;80;21111;-68
2022/08/01 02:40:43;;;;;;;4.40;3.52;;;;;;;;;;1734909;81;21051;-69
2022/08/01 02:43:10;;;;;;;6.78;3.60;;;;;;;;;;1745231;81;21530;-68
2022/08/01 02:45:37;;;;;;;7.22;3.62;;;;;;;;;;1777452;81;21024;-69
2022/08/01 02:48:08;;;;;;;5.03;3.10;;;;;;;;;;1764103;80;21072;-69
2022/08/01 02:50:34;;;;;;;4.15;3.40;;;;;;;;;;1758617;80;21060;-68
2022/08/01 02:53:01;;;;;;;4.35;3.65;;;;;;;;;;1779375;80;21087;-68
2022/08/01 02:55:27;;;;;;;6.75;3.50;;;;;;;;;;1780032;80;21033;-68
2022/08/01 02:57:53;;;;;;;5.37;3.50;;;;;;;;;;1759472;80;21008;-69
2022/08/01 03:00:19;;;;;;;3.92;3.40;;;;;;;;;;1759249;80;21510;-69
2022/08/01 03:02:45;;;;;;;4.87;3.42;;;;;;;;;;1762938;80;21105;-69
2022/08/01 03:05:12;;;;;;;5.22;3.20;;;;;;;;;;1751905;80;21104;-68
2022/08/01 03:07:38;;;;;;;4.50;3.60;;;;;;;;;;1737723;81;22219;-69
2022/08/01 03:10:06;;;;;;;4.50;3.35;;;;;;;;;;1730972;81;21068;-69
2022/08/01 03:12:33;;;;;;;5.83;3.35;;;;;;;;;;1733747;81;21064;-69
2022/08/01 03:14:59;;;;;;;4.90;3.80;;;;;;;;;;1732064;82;21566;-68
2022/08/01 03:17:25;;;;;;;5.47;3.42;;;;;;;;;;1737569;81;21001;-68
2022/08/01 03:19:52;;;;;;;5.65;3.30;;;;;;;;;;1730326;81;20981;-68
2022/08/01 03:22:18;;;;;;;5.03;3.10;;;;;;;;;;1736609;81;21002;-69
2022/08/01 03:24:44;;;;;;;5.10;3.50;;;;;;;;;;1732656;82;21034;-70
2022/08/01 03:27:10;;;;;;;4.15;3.30;;;;;;;;;;1720766;81;21053;-69
2022/08/01 03:29:36;;;;;;;5.22;3.33;;;;;;;;;;1741981;82;21010;-69
2022/08/01 03:32:02;;;;;;;5.87;3.27;;;;;;;;;;1742398;82;21050;-69
2022/08/01 03:34:29;;;;;;;3.62;3.02;;;;;;;;;;1740244;81;21041;-69
2022/08/01 03:37:12;;;;;;;5.75;3.37;;;;;;;;;;1700950;83;21088;-69
2022/08/01 03:39:49;;;;;;;7.35;3.22;;;;;;;;;;1689595;84;21509;-69
2022/08/01 03:42:19;;;;;;;4.10;3.30;;;;;;;;;;1689337;83;22282;-70
2022/08/01 03:44:47;;;;;;;4.47;3.08;;;;;;;;;;1691080;83;21092;-69
2022/08/01 03:47:13;;;;;;;7.22;5.60;;;;;;;;;;1699427;83;21048;-69
2022/08/01 03:49:41;;;;;;;7.30;4.87;;;;;;;;;;1647710;86;21036;-69
2022/08/01 03:52:07;;;;;;;6.25;4.10;;;;;;;;;;1681206;83;21054;-70
2022/08/01 03:54:35;;;;;;;4.33;3.33;;;;;;;;;;1684219;84;21078;-70
2022/08/01 03:57:01;;;;;;;7.72;3.37;;;;;;;;;;1697731;83;21131;-70
2022/08/01 03:59:29;;;;;;;13.60;3.92;;;;;;;;;;1677736;84;21080;-70
2022/08/01 04:01:55;;;;;;;5.72;3.12;;;;;;;;;;1752170;81;21089;-70
2022/08/01 04:04:22;;;;;;;4.37;3.10;;;;;;;;;;1732947;80;21159;-69
2022/08/01 04:06:53;;;;;;;4.92;3.12;;;;;;;;;;1730193;81;21505;-70
2022/08/01 04:09:16;;;;;;;9.20;6.10;;;;;;;;;;1733325;81;21089;-70
2022/08/01 04:11:42;;;;;;;6.37;3.37;;;;;;;;;;1758052;80;21599;-71
2022/08/01 04:14:08;;;;;;;5.58;4.03;;;;;;;;;;1758812;80;21017;-71
2022/08/01 04:16:34;;;;;;;6.75;3.10;;;;;;;;;;1731166;81;21081;-71
2022/08/01 04:19:00;;;;;;;6.55;3.30;;;;;;;;;;1726228;82;21082;-71
2022/08/01 04:21:27;;;;;;;6.55;3.17;;;;;;;;;;1726831;81;21038;-71
2022/08/01 04:23:54;;;;;;;6.25;3.00;;;;;;;;;;1725305;82;21069;-71
2022/08/01 04:26:20;;;;;;;5.15;2.83;;;;;;;;;;1695948;83;22335;-71
2022/08/01 04:28:46;;;;;;;4.37;2.60;;;;;;;;;;1724813;82;21068;-72
2022/08/01 04:31:12;;;;;;;5.42;3.02;;;;;;;;;;1696150;83;21036;-71
2022/08/01 04:33:39;;;;;;;5.58;3.00;;;;;;;;;;1714359;82;21003;-71
2022/08/01 04:38:02;;;;;;;7.30;3.30;;;;;;;;;;1818212;78;22822;-71
2022/08/01 04:40:29;;;;;;;4.95;3.10;;;;;;;;;;1757768;81;21496;-71
2022/08/01 04:42:55;;;;;;;4.28;3.00;;;;;;;;;;1752148;81;21394;-70
2022/08/01 04:45:21;;;;;;;5.03;3.10;;;;;;;;;;1744527;81;21029;-70
2022/08/01 04:47:48;;;;;;;4.95;2.75;;;;;;;;;;1743222;81;21060;-68
2022/08/01 04:50:14;;;;;;;4.85;2.90;;;;;;;;;;1738582;82;21542;-69
2022/08/01 04:52:41;;;;;;;5.05;2.75;;;;;;;;;;1729952;81;21484;-69
2022/08/01 04:55:08;;;;;;;3.85;2.60;;;;;;;;;;1730735;82;21061;-68
2022/08/01 04:57:36;;;;;;;3.62;2.75;;;;;;;;;;1734659;82;21032;-68
2022/08/01 05:00:03;;;;;;;6.30;2.92;;;;;;;;;;1732946;82;21052;-69
2022/08/01 05:02:30;;;;;;;3.70;2.70;;;;;;;;;;1736092;81;21512;-69
2022/08/01 05:04:56;;;;;;;5.67;2.80;;;;;;;;;;1728677;81;21098;-69
2022/08/01 05:07:23;;;;;;;3.40;2.75;;;;;;;;;;1693673;83;21025;-67
2022/08/01 05:09:50;;;;;;;3.52;2.90;;;;;;;;;;1727483;83;21033;-68
2022/08/01 05:12:17;;;;;;;4.45;2.60;;;;;;;;;;1737196;81;21518;-69
2022/08/01 05:14:43;;;;;;;3.75;2.70;;;;;;;;;;1743805;81;21562;-68
2022/08/01 05:17:09;;;;;;;4.37;2.58;;;;;;;;;;1738367;81;21555;-70
2022/08/01 05:19:36;;;;;;;5.45;3.10;;;;;;;;;;1748808;81;21115;-69
2022/08/01 05:22:07;;;;;;;6.25;2.77;;;;;;;;;;1720009;82;21559;-70
2022/08/01 05:24:32;;;;;;;3.98;3.12;;;;;;;;;;1731865;81;21543;-70
2022/08/01 05:26:58;;;;;;;5.17;2.90;;;;;;;;;;1713355;81;21107;-71
2022/08/01 05:29:24;;;;;;;3.70;3.08;;;;;;;;;;1718799;83;21072;-70
2022/08/01 05:31:51;;;;;;;3.22;2.62;;;;;;;;;;1728346;82;21052;-70
2022/08/01 05:34:17;;;;;;;4.70;2.70;;;;;;;;;;1695444;82;21645;-70
2022/08/01 05:36:43;;;;;;;5.12;2.83;;;;;;;;;;1720256;82;21028;-70
2022/08/01 05:39:09;;;;;;;4.90;2.87;;;;;;;;;;1711890;83;21078;-70
2022/08/01 05:41:36;;;;;;;3.42;2.60;;;;;;;;;;1716664;83;21080;-71
2022/08/01 05:44:03;;;;;;;7.78;2.87;;;;;;;;;;1719689;82;21091;-71
2022/08/01 05:46:33;;;;;;;11.30;3.50;;;;;;;;;;1715619;82;21096;-71
2022/08/01 05:49:00;;;;;;;5.47;2.87;;;;;;;;;;1722496;83;21056;-70
2022/08/01 05:51:26;;;;;;;4.15;2.90;;;;;;;;;;1728672;83;21132;-70
2022/08/01 05:53:52;;;;;;;4.67;2.83;;;;;;;;;;1728676;82;21080;-70
2022/08/01 05:56:19;;;;;;;10.28;2.70;;;;;;;;;;1725006;83;21092;-69
2022/08/01 05:58:45;;;;;;;6.75;4.50;;;;;;;;;;1720412;83;21081;-71
2022/08/01 06:01:12;;;;;;;4.87;2.90;;;;;;;;;;1725534;83;21107;-74
2022/08/01 06:03:39;;;;;;;4.30;2.95;;;;;;;;;;1715685;83;21592;-74
2022/08/01 06:06:05;;;;;;;4.10;2.80;;;;;;;;;;1715223;83;21642;-74
2022/08/01 06:08:35;;;;;;;3.70;2.70;;;;;;;;;;1715524;83;21134;-76
2022/08/01 06:11:01;;;;;;;4.17;2.70;;;;;;;;;;1712310;83;21028;-75
2022/08/01 06:13:29;;;;;;;5.75;2.65;;;;;;;;;;1714927;83;21071;-73
2022/08/01 06:15:55;;;;;;;4.92;2.80;;;;;;;;;;1711229;82;21031;-74
2022/08/01 06:18:22;;;;;;;3.90;2.75;;;;;;;;;;1713109;83;21029;-73
2022/08/01 06:20:48;;;;;;;8.73;2.90;;;;;;;;;;1715283;83;21010;-73
2022/08/01 06:23:15;;;;;;;4.85;3.05;;;;;;;;;;1713732;83;21056;-74
2022/08/01 06:25:43;;;;;;;3.42;2.95;;;;;;;;;;1716254;82;21017;-76
2022/08/01 06:28:09;;;;;;;4.90;3.10;;;;;;;;;;1714043;82;21032;-72
2022/08/01 06:30:39;;;;;;;6.90;2.90;;;;;;;;;;1771666;80;21017;-72
2022/08/01 06:33:06;;;;;;;4.70;2.77;;;;;;;;;;1766576;80;21074;-74
2022/08/01 06:35:33;;;;;;;8.10;2.85;;;;;;;;;;1771625;80;21138;-74
2022/08/01 06:37:59;;;;;;;4.08;2.80;;;;;;;;;;1764376;80;21060;-74
2022/08/01 06:40:25;;;;;;;9.15;3.05;;;;;;;;;;1771934;81;22093;-75
2022/08/01 06:42:51;;;;;;;3.95;3.02;;;;;;;;;;1768088;80;21056;-74
2022/08/01 06:45:17;;;;;;;7.40;3.40;;;;;;;;;;1761809;81;21000;-73
2022/08/01 06:47:44;;;;;;;6.00;3.15;;;;;;;;;;1756425;80;21020;-74
2022/08/01 06:50:10;;;;;;;4.78;2.70;;;;;;;;;;1763175;80;21526;-74
2022/08/01 06:52:36;;;;;;;4.40;2.95;;;;;;;;;;1764530;80;20969;-73
2022/08/01 06:55:03;;;;;;;6.92;3.05;;;;;;;;;;1764032;80;21028;-73
2022/08/01 06:57:30;;;;;;;3.87;2.98;;;;;;;;;;1763418;81;21067;-74
2022/08/01 06:59:56;;;;;;;6.62;2.98;;;;;;;;;;1769781;80;21044;-74
2022/08/01 07:02:22;;;;;;;5.80;2.80;;;;;;;;;;1761575;81;21631;-74
2022/08/01 07:04:48;;;;;;;8.05;3.22;;;;;;;;;;1765275;81;20983;-73
2022/08/01 07:07:14;;;;;;;8.18;3.55;;;;;;;;;;1760829;81;21008;-74
2022/08/01 07:09:42;;;;;;;6.05;3.12;;;;;;;;;;1748255;81;21011;-73
2022/08/01 07:12:08;;;;;;;7.65;3.05;;;;;;;;;;1744713;82;21075;-73
2022/08/01 07:14:34;;;;;;;3.87;2.58;;;;;;;;;;1750964;81;21042;-74
2022/08/01 07:17:00;;;;;;;6.58;3.40;;;;;;;;;;1760202;81;21055;-73
2022/08/01 07:19:27;;;;;;;6.33;3.10;;;;;;;;;;1763572;81;21093;-73
2022/08/01 07:21:53;;;;;;;4.25;3.00;;;;;;;;;;1762267;81;21041;-73
2022/08/01 07:24:19;;;;;;;4.10;2.85;;;;;;;;;;1764184;81;21587;-74
2022/08/01 07:26:47;;;;;;;5.30;3.10;;;;;;;;;;1763964;81;21060;-74
2022/08/01 07:29:13;;;;;;;6.15;3.12;;;;;;;;;;1773886;80;21008;-73
2022/08/01 07:31:39;;;;;;;5.20;2.70;;;;;;;;;;1763970;80;21032;-73
2022/08/01 07:34:06;;;;;;;10.45;4.45;;;;;;;;;;1762864;81;21032;-73
2022/08/01 07:36:35;;;;;;;5.37;2.90;;;;;;;;;;1761446;80;21050;-73
2022/08/01 07:39:03;;;;;;;3.47;2.85;;;;;;;;;;1762704;80;20981;-73
2022/08/01 07:41:33;;;;;;;5.08;2.85;;;;;;;;;;1761072;81;21053;-72
2022/08/01 07:43:59;;;;;;;8.23;3.27;;;;;;;;;;1758885;81;21314;-73
2022/08/01 07:46:25;;;;;;;7.20;2.98;;;;;;;;;;1762382;81;21062;-74
2022/08/01 07:48:52;;;;;;;7.55;3.50;;;;;;;;;;1760705;81;21044;-73
2022/08/01 07:51:18;;;;;;;7.58;3.25;;;;;;;;;;1776602;81;21199;-73
2022/08/01 07:53:44;;;;;;;6.70;2.92;;;;;;;;;;1772088;81;21008;-73
2022/08/01 07:56:09;;;;;;;5.55;3.08;;;;;;;;;;1771883;81;21080;-74
2022/08/01 07:58:36;;;;;;;8.58;3.45;;;;;;;;;;1768453;81;21019;-73
2022/08/01 08:01:02;;;;;;;7.92;3.10;;;;;;;;;;1763209;81;21101;-73
2022/08/01 08:03:28;;;;;;;9.13;3.62;;;;;;;;;;1763185;81;21831;-74
2022/08/01 08:05:54;;;;;;;10.70;3.50;;;;;;;;;;1763907;81;21016;-71
2022/08/01 08:08:20;;;;;;;6.22;3.75;;;;;;;;;;1775025;81;21021;-73
2022/08/01 08:10:46;;;;;;;4.85;3.33;;;;;;;;;;1729726;81;21152;-73
2022/08/01 08:13:12;;;;;;;5.92;3.25;;;;;;;;;;1766513;81;21016;-73
2022/08/01 08:15:38;;;;;;;7.15;3.10;;;;;;;;;;1770793;81;21495;-73
2022/08/01 08:18:05;;;;;;;6.62;3.12;;;;;;;;;;1766153;81;21560;-73
2022/08/01 08:20:31;;;;;;;4.30;3.20;;;;;;;;;;1747246;81;21540;-73
2022/08/01 08:22:58;;;;;;;3.62;3.00;;;;;;;;;;1768096;81;21024;-73
2022/08/01 08:25:25;;;;;;;4.85;3.30;;;;;;;;;;1756014;81;21020;-73
2022/08/01 08:27:51;;;;;;;4.37;3.00;;;;;;;;;;1760133;81;21091;-73
2022/08/01 08:30:17;;;;;;;8.15;3.42;;;;;;;;;;1761918;80;21096;-74
2022/08/01 08:32:45;;;;;;;7.87;3.30;;;;;;;;;;1765639;80;20999;-73
2022/08/01 08:35:11;;;;;;;8.95;3.77;;;;;;;;;;1761935;81;21115;-73
2022/08/01 08:37:38;;;;;;;6.22;3.40;;;;;;;;;;1768714;80;21592;-77
2022/08/01 08:40:05;;;;;;;7.33;3.27;;;;;;;;;;1771833;80;21115;-67
2022/08/01 08:42:31;;;;;;;7.78;3.55;;;;;;;;;;1777459;79;21531;-67
2022/08/01 08:44:58;;;;;;;7.17;3.30;;;;;;;;;;1783136;80;21088;-67
2022/08/01 08:47:24;;;;;;;6.90;4.22;;;;;;;;;;1783762;80;21001;-66
2022/08/01 08:49:51;;;;;;;4.92;3.47;;;;;;;;;;1780059;80;21036;-67
2022/08/01 08:52:18;;;;;;;7.47;3.00;;;;;;;;;;1773925;80;21032;-66
2022/08/01 08:54:44;;;;;;;10.30;3.85;;;;;;;;;;1774476;80;21061;-66
2022/08/01 08:57:10;;;;;;;5.28;3.70;;;;;;;;;;1772613;80;21036;-66
2022/08/01 08:59:37;;;;;;;5.28;3.42;;;;;;;;;;1774238;80;21065;-66
2022/08/01 09:02:04;;;;;;;6.72;3.90;;;;;;;;;;1773475;80;21626;-67
2022/08/01 09:04:31;;;;;;;6.00;3.62;;;;;;;;;;1779573;80;21005;-67
2022/08/01 09:06:59;;;;;;;6.17;3.70;;;;;;;;;;1774803;80;21554;-67
2022/08/01 09:09:25;;;;;;;6.35;3.55;;;;;;;;;;1747162;82;21100;-67
2022/08/01 09:11:51;;;;;;;5.80;3.60;;;;;;;;;;1745808;82;21067;-67
2022/08/01 09:14:23;;;;;;;9.30;3.72;;;;;;;;;;1692967;83;21093;-68
2022/08/01 09:16:46;;;;;;;4.67;3.40;;;;;;;;;;1713477;82;21052;-67
2022/08/01 09:19:16;;;;;;;20.32;12.20;;;;;;;;;;1724690;82;20989;-67
2022/08/01 09:21:58;;;;;;;12.03;8.60;;;;;;;;;;1721882;82;21021;-68
2022/08/01 09:24:24;;;;;;;6.95;4.72;;;;;;;;;;1736309;82;21027;-67
2022/08/01 09:26:50;;;;;;;6.53;3.92;;;;;;;;;;1751737;82;21540;-67
2022/08/01 09:29:18;;;;;;;5.42;3.83;;;;;;;;;;1747522;82;21071;-67
2022/08/01 09:31:44;;;;;;;9.00;4.20;;;;;;;;;;1745050;82;21068;-66
2022/08/01 09:34:10;;;;;;;5.22;3.60;;;;;;;;;;1735351;82;21464;-67
2022/08/01 09:36:46;;;;;;;7.47;5.10;;;;;;;;;;1728925;82;21072;-66
2022/08/01 09:39:12;;;;;;;4.92;3.80;;;;;;;;;;1748717;82;21029;-67
2022/08/01 09:41:38;;;;;;;5.37;4.12;;;;;;;;;;1740745;82;21547;-67
2022/08/01 09:44:04;;;;;;;5.70;3.83;;;;;;;;;;1710978;83;21548;-67
2022/08/01 09:46:31;;;;;;;8.88;3.83;;;;;;;;;;1731027;82;21072;-67
2022/08/01 09:48:58;;;;;;;6.97;4.10;;;;;;;;;;1707812;83;21593;-67
2022/08/01 09:51:33;;;;;;;8.10;4.10;;;;;;;;;;1737302;82;21060;-67
2022/08/01 09:53:59;;;;;;;6.47;3.65;;;;;;;;;;1746942;82;21040;-67
2022/08/01 09:56:25;;;;;;;9.08;4.17;;;;;;;;;;1742474;82;21001;-67
2022/08/01 09:58:52;;;;;;;5.97;3.47;;;;;;;;;;1745078;82;20993;-70
2022/08/01 10:01:20;;;;;;;36.45;27.50;;;;;;;;;;1731601;82;21112;-69
2022/08/01 10:03:46;;;;;;;10.90;8.60;;;;;;;;;;1721208;83;21049;-69
2022/08/01 10:06:19;;;;;;;6.50;5.37;;;;;;;;;;1724852;82;21108;-69
2022/08/01 10:08:46;;;;;;;5.20;4.28;;;;;;;;;;1706408;83;21060;-69
2022/08/01 10:11:13;;;;;;;5.28;4.10;;;;;;;;;;1728697;82;21536;-70
2022/08/01 10:13:39;;;;;;;6.35;4.10;;;;;;;;;;1739979;82;21006;-69
2022/08/01 10:16:07;;;;;;;6.60;3.87;;;;;;;;;;1704119;82;22309;-68
2022/08/01 10:18:34;;;;;;;6.10;3.85;;;;;;;;;;1721938;83;21053;-69
2022/08/01 10:21:00;;;;;;;4.08;3.65;;;;;;;;;;1744789;82;21025;-68
2022/08/01 10:23:27;;;;;;;5.42;3.98;;;;;;;;;;1713189;82;21017;-70
2022/08/01 10:25:55;;;;;;;7.22;3.95;;;;;;;;;;1704993;83;21527;-69
2022/08/01 10:28:21;;;;;;;4.95;3.80;;;;;;;;;;1740042;82;21033;-70
2022/08/01 10:30:47;;;;;;;8.60;3.98;;;;;;;;;;1710909;82;21045;-70
2022/08/01 10:33:14;;;;;;;12.43;4.58;;;;;;;;;;1731165;82;21060;-69
2022/08/01 10:35:40;;;;;;;4.97;3.58;;;;;;;;;;1729242;82;21495;-67
2022/08/01 10:38:06;;;;;;;8.08;4.50;;;;;;;;;;1724676;82;21049;-67
2022/08/01 10:40:32;;;;;;;6.62;5.92;;;;;;;;;;1708174;83;21541;-67
2022/08/01 10:42:58;;;;;;;8.15;5.03;;;;;;;;;;1712169;82;21041;-66
2022/08/01 10:45:26;;;;;;;9.90;4.80;;;;;;;;;;1740346;82;21204;-66
2022/08/01 10:48:06;;;;;;;8.10;4.50;;;;;;;;;;1731210;82;21108;-66
2022/08/01 10:50:37;;;;;;;4.40;3.90;;;;;;;;;;1711974;84;21038;-66
2022/08/01 10:53:05;;;;;;;6.97;4.08;;;;;;;;;;1704726;84;21006;-67
2022/08/01 10:55:33;;;;;;;8.65;4.20;;;;;;;;;;1714293;81;21034;-67
2022/08/01 10:57:59;;;;;;;9.93;4.42;;;;;;;;;;1717856;83;21573;-65
2022/08/01 11:00:25;;;;;;;5.25;4.45;;;;;;;;;;1696226;81;21014;-67
2022/08/01 11:03:03;;;;;;;20.02;4.92;;;;;;;;;;1719137;81;21029;-67
2022/08/01 11:05:33;;;;;;;11.08;4.90;;;;;;;;;;1726252;83;20979;-68
2022/08/01 11:08:08;;;;;;;8.15;3.87;;;;;;;;;;1726332;83;21081;-67
2022/08/01 11:10:38;;;;;;;6.55;3.62;;;;;;;;;;1719341;83;21009;-67
2022/08/01 11:13:07;;;;;;;4.72;4.03;;;;;;;;;;1722091;83;21048;-68
2022/08/01 11:15:34;;;;;;;13.05;4.83;;;;;;;;;;1717612;81;21080;-70
2022/08/01 11:18:01;;;;;;;10.03;6.72;;;;;;;;;;1724677;81;21502;-66
2022/08/01 11:20:30;;;;;;;12.93;8.30;;;;;;;;;;1714462;82;21041;-69
2022/08/01 11:23:01;;;;;;;10.65;6.75;;;;;;;;;;1734106;82;21013;-66
2022/08/01 11:25:28;;;;;;;12.15;5.20;;;;;;;;;;1729646;82;20999;-69
2022/08/01 11:28:13;;;;;;;4.62;3.87;;;;;;;;;;1678084;84;21116;-69
2022/08/01 11:30:46;;;;;;;4.50;3.70;;;;;;;;;;1738699;82;21572;-70
2022/08/01 11:33:13;;;;;;;6.67;3.90;;;;;;;;;;1707399;84;21481;-70
2022/08/01 11:35:55;;;;;;;5.58;3.77;;;;;;;;;;1740523;81;21039;-73
2022/08/01 11:38:27;;;;;;;6.72;3.83;;;;;;;;;;1716251;81;21064;-73
2022/08/01 11:41:11;;;;;;;15.03;5.10;;;;;;;;;;1720698;82;21097;-71
2022/08/01 11:43:56;;;;;;;6.40;3.92;;;;;;;;;;1728865;81;21618;-72
2022/08/01 11:46:46;;;;;;;8.00;4.12;;;;;;;;;;1738244;81;21036;-70
2022/08/01 11:49:28;;;;;;;5.40;3.90;;;;;;;;;;1740408;82;21563;-68
2022/08/01 11:51:59;;;;;;;12.25;4.45;;;;;;;;;;1734866;82;21048;-68
2022/08/01 11:54:27;;;;;;;4.95;3.60;;;;;;;;;;1711383;82;21033;-69
2022/08/01 11:56:54;;;;;;;4.15;3.40;;;;;;;;;;1781024;80;20971;-68
2022/08/01 11:59:22;;;;;;;5.12;3.85;;;;;;;;;;1774862;80;21083;-69
2022/08/01 12:01:48;;;;;;;7.20;4.10;;;;;;;;;;1779459;79;21093;-67
2022/08/01 12:04:14;;;;;;;6.50;4.33;;;;;;;;;;1766400;80;21024;-70
2022/08/01 12:06:40;;;;;;;6.92;4.42;;;;;;;;;;1785737;80;21544;-68
2022/08/01 12:09:16;;;;;;;6.65;4.25;;;;;;;;;;1785477;80;21587;-69
2022/08/01 12:11:42;;;;;;;4.00;3.52;;;;;;;;;;1779852;80;21107;-69
2022/08/01 12:14:09;;;;;;;4.40;3.92;;;;;;;;;;1770996;80;20978;-70
2022/08/01 12:16:35;;;;;;;7.12;4.25;;;;;;;;;;1745545;82;21150;-70
2022/08/01 12:19:02;;;;;;;5.37;4.15;;;;;;;;;;1736385;82;21104;-69
2022/08/01 12:21:28;;;;;;;6.55;4.20;;;;;;;;;;1728116;82;21073;-70
2022/08/01 12:24:01;;;;;;;7.12;3.92;;;;;;;;;;1745793;82;21092;-68
2022/08/01 12:26:41;;;;;;;7.87;4.12;;;;;;;;;;1732255;82;21073;-69
2022/08/01 12:29:07;;;;;;;5.78;4.45;;;;;;;;;;1764933;80;22188;-72
2022/08/01 12:31:34;;;;;;;9.20;6.55;;;;;;;;;;1780729;80;21043;-73
2022/08/01 12:34:18;;;;;;;19.57;12.50;;;;;;;;;;1759338;80;21025;-72
2022/08/01 12:36:45;;;;;;;6.85;4.95;;;;;;;;;;1730465;82;21048;-70
2022/08/01 12:39:11;;;;;;;5.03;4.25;;;;;;;;;;1768428;80;21085;-70
2022/08/01 12:41:37;;;;;;;6.60;4.42;;;;;;;;;;1769134;80;21015;-71
2022/08/01 12:44:04;;;;;;;9.08;4.37;;;;;;;;;;1769513;80;21001;-71
2022/08/01 12:46:30;;;;;;;5.10;4.35;;;;;;;;;;1750547;80;21091;-71
2022/08/01 12:48:57;;;;;;;7.62;4.58;;;;;;;;;;1780450;80;21660;-72
2022/08/01 12:51:25;;;;;;;7.35;4.47;;;;;;;;;;1776974;80;21088;-72
2022/08/01 12:53:51;;;;;;;5.47;4.00;;;;;;;;;;1774367;80;21504;-71
2022/08/01 12:56:18;;;;;;;5.33;4.05;;;;;;;;;;1779947;80;21072;-72
2022/08/01 12:58:44;;;;;;;4.45;3.70;;;;;;;;;;1716847;81;21072;-72
2022/08/01 13:01:11;;;;;;;7.42;4.17;;;;;;;;;;1780212;79;21116;-69
2022/08/01 13:03:37;;;;;;;5.58;3.83;;;;;;;;;;1780561;80;21537;-71
2022/08/01 13:06:06;;;;;;;4.40;4.00;;;;;;;;;;1766241;79;20991;-69
2022/08/01 13:08:33;;;;;;;5.00;4.08;;;;;;;;;;1780775;80;21008;-69
2022/08/01 13:11:09;;;;;;;5.12;3.80;;;;;;;;;;1780706;80;21037;-69
2022/08/01 13:13:40;;;;;;;22.00;5.47;;;;;;;;;;1784428;80;20973;-71
2022/08/01 13:16:07;;;;;;;12.10;7.22;;;;;;;;;;1781350;80;21631;-69
2022/08/01 13:18:33;;;;;;;6.15;4.30;;;;;;;;;;1765158;80;21044;-69
2022/08/01 13:21:15;;;;;;;8.10;3.90;;;;;;;;;;1783904;80;20973;-69
2022/08/01 13:23:42;;;;;;;5.73;3.77;;;;;;;;;;1766861;80;20989;-70
2022/08/01 13:26:10;;;;;;;10.20;4.33;;;;;;;;;;1769960;80;21013;-70
2022/08/01 13:28:38;;;;;;;6.92;4.65;;;;;;;;;;1742691;82;21541;-69
2022/08/01 13:31:06;;;;;;;5.33;3.87;;;;;;;;;;1786690;80;20971;-70
2022/08/01 13:33:45;;;;;;;4.30;3.83;;;;;;;;;;1786502;80;21029;-68
2022/08/01 13:36:11;;;;;;;6.55;4.35;;;;;;;;;;1783867;80;21552;-69
2022/08/01 13:41:22;;;;;;;6.65;4.45;;;;;;;;;;1774362;81;21618;-69
2022/08/01 13:43:48;;;;;;;9.60;3.80;;;;;;;;;;1772301;80;21005;-69
2022/08/01 13:46:14;;;;;;;4.67;3.80;;;;;;;;;;1768218;80;21024;-69
2022/08/01 13:48:40;;;;;;;5.00;4.10;;;;;;;;;;1779716;80;20973;-69
2022/08/01 13:51:06;;;;;;;6.22;4.40;;;;;;;;;;1786332;80;20984;-69
2022/08/01 13:53:33;;;;;;;5.95;4.28;;;;;;;;;;1779432;80;21059;-69
2022/08/01 13:55:59;;;;;;;10.30;8.25;;;;;;;;;;1790034;80;21532;-69
2022/08/01 13:58:25;;;;;;;11.12;8.73;;;;;;;;;;1789695;80;20976;-67
2022/08/01 14:00:51;;;;;;;8.00;5.72;;;;;;;;;;1786222;80;21150;-69
2022/08/01 14:03:17;;;;;;;8.20;5.10;;;;;;;;;;1776588;80;20957;-69
2022/08/01 14:05:44;;;;;;;18.52;5.17;;;;;;;;;;1787854;80;21044;-69
2022/08/01 14:08:11;;;;;;;5.60;4.30;;;;;;;;;;1765714;79;21027;-68
2022/08/01 14:10:38;;;;;;;6.85;3.90;;;;;;;;;;1778309;80;21056;-69
2022/08/01 14:13:03;;;;;;;4.78;3.40;;;;;;;;;;1771337;80;21023;-68
2022/08/01 14:15:30;;;;;;;7.00;4.08;;;;;;;;;;1732748;82;21040;-69
2022/08/01 14:17:56;;;;;;;4.00;3.60;;;;;;;;;;1737253;82;21465;-69
2022/08/01 14:20:22;;;;;;;9.05;3.83;;;;;;;;;;1715551;82;21024;-69
2022/08/01 14:22:48;;;;;;;6.17;4.00;;;;;;;;;;1749540;82;21025;-64
2022/08/01 14:25:14;;;;;;;5.25;4.42;;;;;;;;;;1716500;83;20968;-69
2022/08/01 14:27:41;;;;;;;4.25;3.77;;;;;;;;;;1750127;80;21535;-68
2022/08/01 14:30:10;;;;;;;5.25;3.87;;;;;;;;;;1746218;80;21470;-68
2022/08/01 14:32:36;;;;;;;8.60;4.08;;;;;;;;;;1735236;82;21160;-68
2022/08/01 14:35:02;;;;;;;5.50;4.10;;;;;;;;;;1739032;81;21096;-68
2022/08/01 14:37:28;;;;;;;5.28;3.85;;;;;;;;;;1740307;82;21092;-68
2022/08/01 14:39:55;;;;;;;5.92;3.67;;;;;;;;;;1748423;82;21053;-68
2022/08/01 14:42:22;;;;;;;8.33;3.90;;;;;;;;;;1749329;82;21560;-68
2022/08/01 14:44:48;;;;;;;4.97;4.22;;;;;;;;;;1747686;80;21036;-68
2022/08/01 14:47:14;;;;;;;5.15;3.90;;;;;;;;;;1747705;80;21079;-69
2022/08/01 14:49:40;;;;;;;8.50;4.30;;;;;;;;;;1717087;83;21001;-69
2022/08/01 14:52:06;;;;;;;9.43;5.87;;;;;;;;;;1743062;82;21024;-67